Terminal Aerodrome Forecast
Issued by NWS

Home | Current Version | Previous Version | Text Only | Print | Product List | Glossary On
Versions: 1 2 3 4 5 6 7 8 9 10 11 12 13
973
FTUS43 KEAX 251507 AAA
TAFMKC
TAF AMD
KMKC 251507Z 2515/2612 06004KT P6SM BKN021
     FM251800 06007KT P6SM SCT025 BKN150
     FM260100 09003KT P6SM SKC=

USA.gov is the U.S. government's official web portal to all federal, state and local government web resources and services.